Terminal Aerodrome Forecast
Issued by NWS

Home | Current Version | Previous Version | Text Only | Print | Product List | Glossary Off
Versions: 1 2 3 4 5 6 7 8 9 10 11 12 13 14 15

000
FTUS43 KICT 251120
TAFCNU
TAF
KCNU 251120Z 2512/2612 14008KT P6SM SCT080 BKN200 WS020/19040KT
     FM251400 18017G25KT P6SM BKN200
     FM260000 18013KT P6SM -SHRA VCTS SCT035CB OVC070
      TEMPO 2600/2604 4SM -TSRA BR BKN035CB
     FM260400 15010KT 5SM -SHRA VCTS OVC080CB
     FM260600 03011KT P6SM -SHRA VCTS OVC020CB=

USA.gov is the U.S. government's official web portal to all federal, state and local government web resources and services.